Kezdőlap
METAR-TAF:

METAR-TAF

Repülőterek :

Bermuda, Bermuda

földrajzi szélesség: 32-22N, földrajzi hosszúság: 064-41W, magasság: 6 m

Jelenlegi meteorológiai megfigyelések

A jelentés 26 perccel ezelõtt készült, 11:55 UTC
Különbözõ irányokból fújó szél 1 kt
Hőmérséklet 16°C
Páratartalom 88%
Légköri nyomás 1025 hPa
Látótávolság 10 km, vagy több
Kevés felhő 3300 lábon
Szórványos felhőzet 7700 lábon
Szakadozott felhőzet 17000 lábon
Szakadozott felhőzet 30000 lábon

METAR: TXKF 221155Z VRB01KT 9999 FEW033 SCT077 BKN170 BKN300 16/14 Q1025

Idő: 08:21 (12:21 UTC)

Előrejelzés

A jelentés 50 perccel ezelõtt készült, 11:31 UTC
Az előrejelzés 22-én 12 óra UTC és 23-én 12 óra UTC között érvényes
Délnyugati szél 5 kt
Látótávolság 10 km, vagy több
Kevés felhő 3500 lábon
Szakadozott felhőzet 8000 lábon
Borult 25000 lábon

TAF: TXKF 221131Z 2212/2312 22005KT 9999 FEW035 BKN080 OVC250

Meteorológiai megfigyelések és előrejelzések több, mint 4000 repülőtéren (METAR és TAF jelentéseket).

A térképen piros és sárga pontok jelzik az elérhető meteorológiai állomásokat.

Mozgassa az egeret a pont fölött, hogy megjelenjen az állomás neve.

Azután kattintson az időjárási megfigyelések és előrejelzések megtekintéséhez.

A térkép megváltoztatása: kattintson a fekete keresztel jelölt zöld gombra ráközelítéshez, a vonallal jelölt zöld gombra távolításhoz, vagy a zöld nyilakra a szomszédos térképek eléréséhez.


METAR-TAF: